CYHU/YHU METAR and TAF weather

Enter ICAO airport designator
Station Type Date Time Source
CYHU METAR 2019/12/11 15:00 UTC NOAA

CYHU 111500Z AUTO 17007KT 150V220 9SM CLR M08/M14 A3025 RMK SLP248


Station Type Date Time Source
CYHU Decoded METAR 2019/12/11 15:00 UTC NOAA

Saint Hubert Airport , Canada (CYHU) 45-31N 073-25W
Dec 11, 2019 - 10:00 AM EST / 2019.12.11 1500 UTC
Wind: from the S (170 degrees) at 8 MPH (7 KT) (direction variable):0
Visibility: 9 mile(s):0
Sky conditions: clear
Temperature: 17 F (-8 C)
Windchill: 6 F (-14 C):1
Dew Point: 6 F (-14 C)
Relative Humidity: 61%
Pressure (altimeter): 30.25 in. Hg (1024 hPa)
ob: CYHU 111500Z AUTO 17007KT 150V220 9SM CLR M08/M14 A3025 RMK SLP248
cycle: 15

Station Type Date Time Source
CYHU TAF 2019/12/11 12:42 UTC NOAA

TAF TAF CYHU 111138Z 1112/1212 VRB03KT P6SM SCT240
BECMG 1114/1116 15008KT
FM111800 16010KT P6SM BKN030
FM112000 18010KT 2SM -SHSN OVC015 PROB30 1120/1201 3/4SM -SHSN VV008
FM120100 26018G28KT P6SM -SHSN BKN040
FM120500 27015G25KT P6SM FEW040
BECMG 1208/1210 27010KT
RMK FCST BASED ON AUTO OBS. NXT FCST BY 111800Z

Example: see airport list